»·PEaware :: N313WC KSAN-KVNY

N313WC :: KSAN-KVNY

FLIGHT INFORMATION

Flight Status: Arrived
Operator: Privately registered:
United States
More flights under this callsign
Pilot: Sonny B. (6473)
Aircraft: PIPER PA-30 TWIN COMANCHE
(PA30)
More flights by this aircraft type
Origin: KSAN San Diego Intl-Lindbergh
United States
Destination: KVNY Van Nuys
United States
More flights between these airports :: More routes between these airports
Route: +OCN V23 POPPR SMO125 SMO SMO317 CANOG
File this flight plan on PilotEdge
Remarks:
Altitude:
(Current/Filed)
8,000ft
Speed:
(Current/Filed)
150kts
Departed: 04-Jan-18 08:12 PM
Arrived: 04-Jan-18 09:22 PM
Distance/Time
Traveled:
110nm/1:09
Distance/Time
To Go:
Arrived

Flight Plot

Page will automatically refresh every two minutes.


Map Options




Map Legend


Flown Route
Filed Route
Departure Airport
Arrival Airport
Navaid (VOR, NDB)
Fix

Horizontal Profiles

Position Reports

Time Latitude Longitude Heading Altitude Ground
Speed
04-Jan-18 19:57 32.732420 -117.176641 193 20ft 0kts
04-Jan-18 19:58 32.732420 -117.176641 193 20ft 0kts
04-Jan-18 19:59 32.732420 -117.176641 193 20ft 0kts
04-Jan-18 20:00 32.732420 -117.176641 193 20ft 0kts
04-Jan-18 20:01 32.732420 -117.176641 193 20ft 0kts
04-Jan-18 20:02 32.732420 -117.176641 193 20ft 0kts
04-Jan-18 20:03 32.732420 -117.176641 193 20ft 0kts
04-Jan-18 20:04 32.732420 -117.176641 193 20ft 0kts
04-Jan-18 20:05 32.732420 -117.176641 193 20ft 0kts
04-Jan-18 20:06 32.732420 -117.176641 193 20ft 0kts
04-Jan-18 20:07 32.732420 -117.176641 193 20ft 0kts
04-Jan-18 20:08 32.732420 -117.176641 193 20ft 0kts
04-Jan-18 20:09 32.732420 -117.176641 193 20ft 0kts
04-Jan-18 20:10 32.732420 -117.176641 194 20ft 0kts
04-Jan-18 20:11 32.732420 -117.176641 194 20ft 0kts
04-Jan-18 20:12 32.732420 -117.176641 194 20ft 0kts
04-Jan-18 20:13 32.732420 -117.176641 194 20ft 0kts
04-Jan-18 20:14 32.732420 -117.176641 194 20ft 0kts
04-Jan-18 20:15 32.732418 -117.176642 193 20ft 0kts
04-Jan-18 20:16 32.730918 -117.175460 137 20ft 0kts
04-Jan-18 20:17 32.730201 -117.175487 256 20ft 13kts
04-Jan-18 20:18 32.734907 -117.193460 290 533ft 108kts
04-Jan-18 20:19 32.756129 -117.217307 324 1888ft 120kts
04-Jan-18 20:20 32.785058 -117.245304 322 1999ft 144kts
04-Jan-18 20:21 32.816813 -117.275483 322 1995ft 147kts
04-Jan-18 20:22 32.853882 -117.292169 344 2428ft 140kts
04-Jan-18 20:23 32.891060 -117.305583 340 3214ft 135kts
04-Jan-18 20:24 32.925519 -117.318199 342 4241ft 128kts
04-Jan-18 20:25 32.959114 -117.329166 344 5141ft 129kts
04-Jan-18 20:26 32.993694 -117.338518 347 5965ft 133kts
04-Jan-18 20:27 33.032728 -117.349648 345 6001ft 155kts
04-Jan-18 20:28 33.075360 -117.363181 343 5998ft 161kts
04-Jan-18 20:29 33.116037 -117.376729 343 5999ft 161kts
04-Jan-18 20:30 33.159306 -117.391052 343 5999ft 161kts
04-Jan-18 20:31 33.201618 -117.405052 343 6000ft 161kts
04-Jan-18 20:32 33.243896 -117.419033 343 6000ft 161kts
04-Jan-18 20:33 33.276255 -117.453419 308 6002ft 160kts
04-Jan-18 20:34 33.305942 -117.492865 314 6003ft 160kts
04-Jan-18 20:35 33.337313 -117.530804 315 6004ft 160kts
04-Jan-18 20:36 33.369250 -117.568058 316 5996ft 160kts
04-Jan-18 20:37 33.401770 -117.604662 317 5998ft 160kts
04-Jan-18 20:38 33.434210 -117.641151 317 5996ft 160kts
04-Jan-18 20:39 33.465367 -117.676223 316 5995ft 160kts
04-Jan-18 20:40 33.496647 -117.711470 315 5993ft 160kts
04-Jan-18 20:41 33.527400 -117.747390 315 5991ft 160kts
04-Jan-18 20:42 33.558974 -117.784586 314 5990ft 160kts
04-Jan-18 20:43 33.587781 -117.819964 313 5989ft 160kts
04-Jan-18 20:44 33.614223 -117.853161 313 5989ft 160kts
04-Jan-18 20:45 33.638113 -117.892709 305 5987ft 160kts
04-Jan-18 20:46 33.660819 -117.927670 309 5986ft 160kts
04-Jan-18 20:47 33.685243 -117.964218 308 5984ft 159kts
04-Jan-18 20:48 33.704366 -117.992743 308 5983ft 159kts
04-Jan-18 20:49 33.723279 -118.020876 308 5982ft 159kts
04-Jan-18 20:50 33.736220 -118.040058 308 5981ft 159kts
04-Jan-18 20:51 33.749196 -118.059250 308 5981ft 159kts
04-Jan-18 20:52 33.759535 -118.074511 308 5980ft 159kts
04-Jan-18 20:53 33.768782 -118.088136 308 5979ft 159kts
04-Jan-18 20:54 33.771493 -118.092129 308 5975ft 159kts
04-Jan-18 20:55 33.797688 -118.130627 309 5971ft 159kts
04-Jan-18 20:56 33.820264 -118.163761 309 5971ft 159kts
04-Jan-18 20:57 33.847455 -118.204922 308 5972ft 159kts
04-Jan-18 20:58 33.878875 -118.253122 308 5975ft 159kts
04-Jan-18 20:59 33.901529 -118.288135 308 5977ft 160kts
04-Jan-18 21:00 33.928186 -118.329694 308 5979ft 160kts
04-Jan-18 21:01 33.955180 -118.371890 308 5976ft 160kts
04-Jan-18 21:02 33.981827 -118.413539 308 5973ft 160kts
04-Jan-18 21:03 34.008903 -118.455810 309 5971ft 160kts
04-Jan-18 21:04 34.046847 -118.481580 331 5970ft 160kts
04-Jan-18 21:05 34.086849 -118.503409 340 5970ft 161kts
04-Jan-18 21:06 34.126991 -118.517612 342 5973ft 161kts
04-Jan-18 21:07 34.167822 -118.532097 343 5576ft 155kts
04-Jan-18 21:08 34.208759 -118.546827 342 4981ft 153kts
04-Jan-18 21:09 34.248135 -118.561382 342 4988ft 150kts
04-Jan-18 21:10 34.287692 -118.576049 342 4988ft 150kts
04-Jan-18 21:11 34.327264 -118.590857 342 4988ft 149kts
04-Jan-18 21:12 34.366267 -118.605596 342 4986ft 143kts
04-Jan-18 21:13 34.403215 -118.619593 348 4985ft 135kts
04-Jan-18 21:14 34.439550 -118.610574 12 4988ft 134kts
04-Jan-18 21:15 34.475478 -118.600323 12 4986ft 131kts
04-Jan-18 21:16 34.508206 -118.587419 55 4982ft 126kts
04-Jan-18 21:17 34.518065 -118.546238 72 4988ft 127kts
04-Jan-18 21:18 34.501622 -118.518115 175 4992ft 130kts
04-Jan-18 21:19 34.465607 -118.513310 178 4989ft 130kts
04-Jan-18 21:20 34.430920 -118.511097 182 4858ft 123kts
04-Jan-18 21:21 34.397305 -118.508641 180 4759ft 123kts
04-Jan-18 21:22 34.362863 -118.505550 176 4465ft 124kts
04-Jan-18 21:23 34.330782 -118.501211 180 3907ft 111kts
04-Jan-18 21:24 34.300004 -118.498884 179 3186ft 114kts
04-Jan-18 21:25 34.268005 -118.496115 176 2200ft 115kts
04-Jan-18 21:26 34.240433 -118.493235 177 1447ft 84kts
04-Jan-18 21:27 34.221087 -118.491433 177 984ft 80kts
04-Jan-18 21:28 34.205283 -118.490095 186 803ft 25kts
04-Jan-18 21:29 34.203860 -118.490968 192 803ft 0kts

Navigation Log

Ident Type
1. KSAN Airport
2. OCN Navaid
3. KELPS Fix
4. DANAH Fix
5. KRAUZ Fix
6. BALBO Fix
7. MIDDS Fix
8. SLI Navaid
9. POPPR Fix
10. SMO Navaid
11. CANOG Fix
12. KVNY Airport